首页
METAR-TAF:

METAR-TAF

机场 :

廊曼国际机场

曼谷, 泰国

纬度: 13-54-45N, 经度: 100-36-24E, 海拔: 4米

当前天气观测

该预报发布于35分钟前的14:00 UTC
风速5节,风向,在东转东北东南之间变化
温度 27°C
湿度 94%
气压 1013 hPa
能见度10公里或以上
少量云层高于2000英尺
散云层高于3500英尺
多云层高于10000英尺
小雨

METAR: VTBD 231400Z 09005KT 060V140 9999 -RA FEW020 SCT035 BKN100 27/26 Q1013 NOSIG

时间: 21:35 (14:35 UTC)

预报

该预报发布于3小时和35分钟前的11:00 UTC
预报有效从23日的 12点(UTC)到 24日的 18点(UTC)
风速5节,风向南转西南
能见度10公里或以上
少量云层高于2000英尺
短暂存在
从 23日的 14点(UTC)到 23日的 18点(UTC)
风速15节,风向多变
能見度: 6000
少量云层高于1800英尺, 积雨云.
散云层高于3000英尺
雷暴, 小雨
成为
从 23日的 22点(UTC)到 23日的 24点(UTC)
风速5节,风向北转西北
成为
从 24日的 03点(UTC)到 24日的 05点(UTC)
风速5节,风向南转西南
短暂存在
从 24日的 08点(UTC)到 24日的 12点(UTC)
风速15节,风向多变
能見度: 6000
少量云层高于1800英尺, 积雨云.
散云层高于3000英尺
雷暴, 小雨

TAF: VTBD 231100Z 2312/2418 20005KT 9999 FEW020 TEMPO 2314/2318 VRB15KT 6000 -TSRA FEW018CB SCT030 BECMG 2322/2324 34005KT BECMG 2403/2405 20005KT TEMPO 2408/2412 VRB15KT 6000 -TSRA FEW018CB SCT030

超过4000个机场的气象观测和天气预报(METAR&TAF报告)。

可查询的气象台以黄色和红色小点在地图上表示。

将鼠标移到小点上方,可查看气象台名称。

然后点击查看天气观测和预报。

如需切换地图:点击带黑十字的绿色按钮放大地图;点击带横线的绿色按钮缩小地图;或者点击绿色箭头查看邻近地区的地图。


METAR-TAF: